sensor_id;sensor_type;location;lat;lon;timestamp;P1;durP1;ratioP1;P2;durP2;ratioP2
51995;SDS011;38010;53.264;6.592;2023-04-08T00:01:51;0.95;;;0.80;;
51995;SDS011;38010;53.264;6.592;2023-04-08T00:04:18;0.80;;;0.80;;
51995;SDS011;38010;53.264;6.592;2023-04-08T00:06:44;1.23;;;1.02;;
51995;SDS011;38010;53.264;6.592;2023-04-08T00:09:10;1.15;;;0.75;;
51995;SDS011;38010;53.264;6.592;2023-04-08T00:11:36;1.08;;;0.70;;
51995;SDS011;38010;53.264;6.592;2023-04-08T00:14:02;0.90;;;0.70;;
51995;SDS011;38010;53.264;6.592;2023-04-08T00:16:28;1.00;;;0.77;;
51995;SDS011;38010;53.264;6.592;2023-04-08T00:18:54;1.55;;;0.90;;
51995;SDS011;38010;53.264;6.592;2023-04-08T00:21:20;1.08;;;0.90;;
51995;SDS011;38010;53.264;6.592;2023-04-08T00:23:47;1.38;;;0.90;;
51995;SDS011;38010;53.264;6.592;2023-04-08T00:26:13;1.05;;;0.90;;
51995;SDS011;38010;53.264;6.592;2023-04-08T00:28:40;0.80;;;0.80;;
51995;SDS011;38010;53.264;6.592;2023-04-08T00:31:06;1.52;;;1.00;;
51995;SDS011;38010;53.264;6.592;2023-04-08T00:33:33;1.60;;;0.90;;
51995;SDS011;38010;53.264;6.592;2023-04-08T00:35:59;1.00;;;0.90;;
51995;SDS011;38010;53.264;6.592;2023-04-08T00:38:24;1.58;;;0.95;;
51995;SDS011;38010;53.264;6.592;2023-04-08T00:40:50;1.30;;;0.95;;
51995;SDS011;38010;53.264;6.592;2023-04-08T00:43:16;0.77;;;0.70;;
51995;SDS011;38010;53.264;6.592;2023-04-08T00:45:45;1.42;;;0.88;;
51995;SDS011;38010;53.264;6.592;2023-04-08T00:48:11;1.25;;;0.90;;
51995;SDS011;38010;53.264;6.592;2023-04-08T00:50:37;1.25;;;0.90;;
51995;SDS011;38010;53.264;6.592;2023-04-08T00:53:02;1.20;;;0.93;;
51995;SDS011;38010;53.264;6.592;2023-04-08T00:55:28;1.00;;;0.80;;
51995;SDS011;38010;53.264;6.592;2023-04-08T00:57:54;1.35;;;1.05;;
51995;SDS011;38010;53.264;6.592;2023-04-08T01:00:21;1.20;;;1.02;;
51995;SDS011;38010;53.264;6.592;2023-04-08T01:02:55;1.80;;;1.10;;
51995;SDS011;38010;53.264;6.592;2023-04-08T01:05:34;1.38;;;0.93;;
51995;SDS011;38010;53.264;6.592;2023-04-08T01:08:07;1.55;;;1.02;;
51995;SDS011;38010;53.264;6.592;2023-04-08T01:10:36;1.00;;;0.88;;
51995;SDS011;38010;53.264;6.592;2023-04-08T01:13:07;1.23;;;0.98;;
51995;SDS011;38010;53.264;6.592;2023-04-08T01:15:36;1.25;;;1.08;;
51995;SDS011;38010;53.264;6.592;2023-04-08T01:18:09;1.17;;;0.98;;
51995;SDS011;38010;53.264;6.592;2023-04-08T01:20:36;1.20;;;1.00;;
51995;SDS011;38010;53.264;6.592;2023-04-08T01:26:19;0.95;;;0.85;;
51995;SDS011;38010;53.264;6.592;2023-04-08T01:28:48;1.10;;;1.00;;
51995;SDS011;38010;53.264;6.592;2023-04-08T01:31:16;1.00;;;0.82;;
51995;SDS011;38010;53.264;6.592;2023-04-08T01:33:43;0.98;;;0.80;;
51995;SDS011;38010;53.264;6.592;2023-04-08T01:36:12;1.33;;;1.23;;
51995;SDS011;38010;53.264;6.592;2023-04-08T01:38:39;2.22;;;1.20;;
51995;SDS011;38010;53.264;6.592;2023-04-08T01:41:06;1.52;;;1.30;;
51995;SDS011;38010;53.264;6.592;2023-04-08T01:43:34;1.42;;;1.08;;
51995;SDS011;38010;53.264;6.592;2023-04-08T01:46:00;1.20;;;1.10;;
51995;SDS011;38010;53.264;6.592;2023-04-08T01:48:26;1.23;;;1.13;;
51995;SDS011;38010;53.264;6.592;2023-04-08T01:50:53;1.95;;;1.55;;
51995;SDS011;38010;53.264;6.592;2023-04-08T01:53:20;1.45;;;1.25;;
51995;SDS011;38010;53.264;6.592;2023-04-08T01:55:49;1.67;;;1.25;;
51995;SDS011;38010;53.264;6.592;2023-04-08T01:58:20;1.50;;;1.27;;
51995;SDS011;38010;53.264;6.592;2023-04-08T02:00:46;1.27;;;1.15;;
51995;SDS011;38010;53.264;6.592;2023-04-08T02:03:13;1.98;;;1.40;;
51995;SDS011;38010;53.264;6.592;2023-04-08T02:05:42;1.60;;;1.48;;
51995;SDS011;38010;53.264;6.592;2023-04-08T02:08:08;1.30;;;1.20;;
51995;SDS011;38010;53.264;6.592;2023-04-08T02:10:33;1.60;;;1.50;;
51995;SDS011;38010;53.264;6.592;2023-04-08T02:12:59;1.70;;;1.48;;
51995;SDS011;38010;53.264;6.592;2023-04-08T02:15:26;1.65;;;1.40;;
51995;SDS011;38010;53.264;6.592;2023-04-08T02:17:59;1.85;;;1.40;;
51995;SDS011;38010;53.264;6.592;2023-04-08T02:25:39;1.75;;;1.30;;
51995;SDS011;38010;53.264;6.592;2023-04-08T02:28:09;2.05;;;1.50;;
51995;SDS011;38010;53.264;6.592;2023-04-08T02:30:36;1.73;;;1.15;;
51995;SDS011;38010;53.264;6.592;2023-04-08T02:33:05;1.58;;;1.30;;
51995;SDS011;38010;53.264;6.592;2023-04-08T02:35:33;2.13;;;1.60;;
51995;SDS011;38010;53.264;6.592;2023-04-08T02:38:00;1.45;;;1.35;;
51995;SDS011;38010;53.264;6.592;2023-04-08T02:40:27;2.08;;;1.70;;
51995;SDS011;38010;53.264;6.592;2023-04-08T02:42:54;2.03;;;1.60;;
51995;SDS011;38010;53.264;6.592;2023-04-08T02:45:20;1.95;;;1.70;;
51995;SDS011;38010;53.264;6.592;2023-04-08T02:47:46;1.75;;;1.40;;
51995;SDS011;38010;53.264;6.592;2023-04-08T02:50:12;2.10;;;1.63;;
51995;SDS011;38010;53.264;6.592;2023-04-08T02:52:38;1.75;;;1.45;;
51995;SDS011;38010;53.264;6.592;2023-04-08T02:55:04;1.65;;;1.55;;
51995;SDS011;38010;53.264;6.592;2023-04-08T02:57:33;1.83;;;1.60;;
51995;SDS011;38010;53.264;6.592;2023-04-08T03:00:01;2.03;;;1.77;;
51995;SDS011;38010;53.264;6.592;2023-04-08T03:02:28;2.20;;;1.50;;
51995;SDS011;38010;53.264;6.592;2023-04-08T03:04:53;1.60;;;1.50;;
51995;SDS011;38010;53.264;6.592;2023-04-08T03:07:19;1.52;;;1.42;;
51995;SDS011;38010;53.264;6.592;2023-04-08T03:09:45;2.08;;;1.75;;
51995;SDS011;38010;53.264;6.592;2023-04-08T03:12:11;1.77;;;1.67;;
51995;SDS011;38010;53.264;6.592;2023-04-08T03:14:36;1.80;;;1.58;;
51995;SDS011;38010;53.264;6.592;2023-04-08T03:17:02;2.10;;;1.70;;
51995;SDS011;38010;53.264;6.592;2023-04-08T03:19:28;1.75;;;1.60;;
51995;SDS011;38010;53.264;6.592;2023-04-08T03:21:53;2.03;;;1.80;;
51995;SDS011;38010;53.264;6.592;2023-04-08T03:24:19;1.58;;;1.40;;
51995;SDS011;38010;53.264;6.592;2023-04-08T03:26:45;1.85;;;1.65;;
51995;SDS011;38010;53.264;6.592;2023-04-08T03:29:11;1.60;;;1.50;;
51995;SDS011;38010;53.264;6.592;2023-04-08T03:31:36;2.17;;;1.50;;
51995;SDS011;38010;53.264;6.592;2023-04-08T03:34:02;2.40;;;1.65;;
51995;SDS011;38010;53.264;6.592;2023-04-08T03:36:28;1.65;;;1.55;;
51995;SDS011;38010;53.264;6.592;2023-04-08T03:38:53;2.00;;;1.55;;
51995;SDS011;38010;53.264;6.592;2023-04-08T03:41:19;1.75;;;1.65;;
51995;SDS011;38010;53.264;6.592;2023-04-08T03:43:45;1.55;;;1.45;;
51995;SDS011;38010;53.264;6.592;2023-04-08T03:46:11;2.10;;;1.85;;
51995;SDS011;38010;53.264;6.592;2023-04-08T03:48:36;2.22;;;1.90;;
51995;SDS011;38010;53.264;6.592;2023-04-08T03:51:02;2.00;;;1.67;;
51995;SDS011;38010;53.264;6.592;2023-04-08T03:53:28;2.47;;;1.88;;
51995;SDS011;38010;53.264;6.592;2023-04-08T03:55:54;1.70;;;1.60;;
51995;SDS011;38010;53.264;6.592;2023-04-08T03:58:20;2.00;;;1.80;;
51995;SDS011;38010;53.264;6.592;2023-04-08T04:00:46;1.75;;;1.63;;
51995;SDS011;38010;53.264;6.592;2023-04-08T04:03:12;1.70;;;1.60;;
51995;SDS011;38010;53.264;6.592;2023-04-08T04:05:38;2.78;;;1.85;;
51995;SDS011;38010;53.264;6.592;2023-04-08T04:08:04;1.80;;;1.70;;
51995;SDS011;38010;53.264;6.592;2023-04-08T04:10:30;2.45;;;1.80;;
51995;SDS011;38010;53.264;6.592;2023-04-08T04:12:56;2.03;;;1.63;;
51995;SDS011;38010;53.264;6.592;2023-04-08T04:15:22;2.20;;;1.73;;
51995;SDS011;38010;53.264;6.592;2023-04-08T04:17:47;1.73;;;1.63;;
51995;SDS011;38010;53.264;6.592;2023-04-08T04:20:15;2.35;;;2.08;;
51995;SDS011;38010;53.264;6.592;2023-04-08T04:22:44;2.25;;;1.92;;
51995;SDS011;38010;53.264;6.592;2023-04-08T04:25:10;2.20;;;1.95;;
51995;SDS011;38010;53.264;6.592;2023-04-08T04:27:35;1.98;;;1.75;;
51995;SDS011;38010;53.264;6.592;2023-04-08T04:30:01;1.80;;;1.70;;
51995;SDS011;38010;53.264;6.592;2023-04-08T04:32:28;1.92;;;1.60;;
51995;SDS011;38010;53.264;6.592;2023-04-08T04:34:54;1.90;;;1.70;;
51995;SDS011;38010;53.264;6.592;2023-04-08T04:37:20;1.80;;;1.60;;
51995;SDS011;38010;53.264;6.592;2023-04-08T04:39:45;2.03;;;1.67;;
51995;SDS011;38010;53.264;6.592;2023-04-08T04:42:11;2.03;;;1.70;;
51995;SDS011;38010;53.264;6.592;2023-04-08T04:44:37;1.92;;;1.80;;
51995;SDS011;38010;53.264;6.592;2023-04-08T04:47:02;1.92;;;1.63;;
51995;SDS011;38010;53.264;6.592;2023-04-08T04:49:28;2.08;;;1.88;;
51995;SDS011;38010;53.264;6.592;2023-04-08T04:51:54;2.33;;;2.03;;
51995;SDS011;38010;53.264;6.592;2023-04-08T04:54:19;2.53;;;2.00;;
51995;SDS011;38010;53.264;6.592;2023-04-08T04:56:45;2.17;;;1.80;;
51995;SDS011;38010;53.264;6.592;2023-04-08T04:59:11;1.80;;;1.70;;
51995;SDS011;38010;53.264;6.592;2023-04-08T05:01:37;2.67;;;2.08;;
51995;SDS011;38010;53.264;6.592;2023-04-08T05:04:05;2.35;;;2.15;;
51995;SDS011;38010;53.264;6.592;2023-04-08T05:06:31;2.10;;;1.90;;
51995;SDS011;38010;53.264;6.592;2023-04-08T05:08:57;3.28;;;1.70;;
51995;SDS011;38010;53.264;6.592;2023-04-08T05:11:23;1.70;;;1.60;;
51995;SDS011;38010;53.264;6.592;2023-04-08T05:13:49;2.45;;;2.05;;
51995;SDS011;38010;53.264;6.592;2023-04-08T05:16:15;1.70;;;1.60;;
51995;SDS011;38010;53.264;6.592;2023-04-08T05:18:41;2.15;;;1.83;;
51995;SDS011;38010;53.264;6.592;2023-04-08T05:21:06;1.65;;;1.55;;
51995;SDS011;38010;53.264;6.592;2023-04-08T05:23:33;1.90;;;1.70;;
51995;SDS011;38010;53.264;6.592;2023-04-08T05:25:59;2.75;;;1.88;;
51995;SDS011;38010;53.264;6.592;2023-04-08T05:28:25;2.42;;;1.95;;
51995;SDS011;38010;53.264;6.592;2023-04-08T05:30:51;2.67;;;2.08;;
51995;SDS011;38010;53.264;6.592;2023-04-08T05:33:18;1.90;;;1.70;;
51995;SDS011;38010;53.264;6.592;2023-04-08T05:35:44;2.28;;;1.77;;
51995;SDS011;38010;53.264;6.592;2023-04-08T05:38:10;2.50;;;1.80;;
51995;SDS011;38010;53.264;6.592;2023-04-08T05:40:36;2.45;;;2.03;;
51995;SDS011;38010;53.264;6.592;2023-04-08T05:43:02;2.30;;;2.10;;
51995;SDS011;38010;53.264;6.592;2023-04-08T05:45:28;1.88;;;1.70;;
51995;SDS011;38010;53.264;6.592;2023-04-08T05:47:53;1.60;;;1.50;;
51995;SDS011;38010;53.264;6.592;2023-04-08T05:50:19;2.65;;;2.10;;
51995;SDS011;38010;53.264;6.592;2023-04-08T05:52:45;2.30;;;1.90;;
51995;SDS011;38010;53.264;6.592;2023-04-08T05:55:11;2.25;;;2.05;;
51995;SDS011;38010;53.264;6.592;2023-04-08T05:57:38;2.20;;;2.00;;
51995;SDS011;38010;53.264;6.592;2023-04-08T06:00:04;2.20;;;2.00;;
51995;SDS011;38010;53.264;6.592;2023-04-08T06:02:31;2.05;;;1.83;;
51995;SDS011;38010;53.264;6.592;2023-04-08T06:04:57;2.20;;;2.00;;
51995;SDS011;38010;53.264;6.592;2023-04-08T06:07:22;2.55;;;2.10;;
51995;SDS011;38010;53.264;6.592;2023-04-08T06:09:48;2.65;;;2.10;;
51995;SDS011;38010;53.264;6.592;2023-04-08T06:12:14;1.98;;;1.77;;
51995;SDS011;38010;53.264;6.592;2023-04-08T06:14:40;2.00;;;1.80;;
51995;SDS011;38010;53.264;6.592;2023-04-08T06:17:05;2.40;;;1.90;;
51995;SDS011;38010;53.264;6.592;2023-04-08T06:19:31;2.70;;;1.80;;
51995;SDS011;38010;53.264;6.592;2023-04-08T06:21:57;2.25;;;1.85;;
51995;SDS011;38010;53.264;6.592;2023-04-08T06:24:26;2.10;;;1.70;;
51995;SDS011;38010;53.264;6.592;2023-04-08T06:26:53;1.90;;;1.65;;
51995;SDS011;38010;53.264;6.592;2023-04-08T06:29:20;2.03;;;1.80;;
51995;SDS011;38010;53.264;6.592;2023-04-08T06:31:47;1.95;;;1.80;;
51995;SDS011;38010;53.264;6.592;2023-04-08T06:34:13;2.00;;;1.80;;
51995;SDS011;38010;53.264;6.592;2023-04-08T06:36:38;2.20;;;1.80;;
51995;SDS011;38010;53.264;6.592;2023-04-08T06:39:04;2.33;;;1.90;;
51995;SDS011;38010;53.264;6.592;2023-04-08T06:41:30;3.85;;;1.90;;
51995;SDS011;38010;53.264;6.592;2023-04-08T06:43:56;2.50;;;1.50;;
51995;SDS011;38010;53.264;6.592;2023-04-08T06:46:31;1.85;;;1.70;;
51995;SDS011;38010;53.264;6.592;2023-04-08T06:48:56;1.90;;;1.70;;
51995;SDS011;38010;53.264;6.592;2023-04-08T06:51:22;2.22;;;2.03;;
51995;SDS011;38010;53.264;6.592;2023-04-08T06:53:48;2.00;;;1.80;;
51995;SDS011;38010;53.264;6.592;2023-04-08T06:56:13;2.13;;;1.58;;
51995;SDS011;38010;53.264;6.592;2023-04-08T06:58:39;1.73;;;1.60;;
51995;SDS011;38010;53.264;6.592;2023-04-08T07:01:05;2.78;;;1.77;;
51995;SDS011;38010;53.264;6.592;2023-04-08T07:03:31;2.13;;;1.63;;
51995;SDS011;38010;53.264;6.592;2023-04-08T07:05:56;2.50;;;1.88;;
51995;SDS011;38010;53.264;6.592;2023-04-08T07:08:22;2.45;;;1.77;;
51995;SDS011;38010;53.264;6.592;2023-04-08T07:10:48;1.80;;;1.45;;
51995;SDS011;38010;53.264;6.592;2023-04-08T07:13:15;1.90;;;1.70;;
51995;SDS011;38010;53.264;6.592;2023-04-08T07:15:41;1.88;;;1.65;;
51995;SDS011;38010;53.264;6.592;2023-04-08T07:18:07;1.90;;;1.70;;
51995;SDS011;38010;53.264;6.592;2023-04-08T07:20:33;1.60;;;1.50;;
51995;SDS011;38010;53.264;6.592;2023-04-08T07:23:02;2.33;;;1.88;;
51995;SDS011;38010;53.264;6.592;2023-04-08T07:25:28;2.15;;;1.98;;
51995;SDS011;38010;53.264;6.592;2023-04-08T07:27:53;2.58;;;2.17;;
51995;SDS011;38010;53.264;6.592;2023-04-08T07:30:20;2.58;;;2.35;;
51995;SDS011;38010;53.264;6.592;2023-04-08T07:32:46;1.95;;;1.73;;
51995;SDS011;38010;53.264;6.592;2023-04-08T07:35:12;2.10;;;1.90;;
51995;SDS011;38010;53.264;6.592;2023-04-08T07:37:37;2.30;;;2.05;;
51995;SDS011;38010;53.264;6.592;2023-04-08T07:40:03;2.25;;;2.00;;
51995;SDS011;38010;53.264;6.592;2023-04-08T07:42:29;1.70;;;1.60;;
51995;SDS011;38010;53.264;6.592;2023-04-08T07:44:55;2.35;;;1.70;;
51995;SDS011;38010;53.264;6.592;2023-04-08T07:47:20;2.17;;;1.90;;
51995;SDS011;38010;53.264;6.592;2023-04-08T07:49:46;2.10;;;1.85;;
51995;SDS011;38010;53.264;6.592;2023-04-08T07:52:12;2.85;;;1.92;;
51995;SDS011;38010;53.264;6.592;2023-04-08T07:54:38;2.00;;;1.80;;
51995;SDS011;38010;53.264;6.592;2023-04-08T07:57:03;1.92;;;1.75;;
51995;SDS011;38010;53.264;6.592;2023-04-08T07:59:30;1.75;;;1.50;;
51995;SDS011;38010;53.264;6.592;2023-04-08T08:01:56;1.83;;;1.67;;
51995;SDS011;38010;53.264;6.592;2023-04-08T08:04:22;1.90;;;1.70;;
51995;SDS011;38010;53.264;6.592;2023-04-08T08:06:49;1.95;;;1.75;;
51995;SDS011;38010;53.264;6.592;2023-04-08T08:09:15;1.75;;;1.50;;
51995;SDS011;38010;53.264;6.592;2023-04-08T08:11:41;3.00;;;1.77;;
51995;SDS011;38010;53.264;6.592;2023-04-08T08:14:06;2.08;;;1.60;;
51995;SDS011;38010;53.264;6.592;2023-04-08T08:16:32;2.42;;;2.08;;
51995;SDS011;38010;53.264;6.592;2023-04-08T08:18:58;1.58;;;1.48;;
51995;SDS011;38010;53.264;6.592;2023-04-08T08:21:24;1.75;;;1.58;;
51995;SDS011;38010;53.264;6.592;2023-04-08T08:23:51;2.03;;;1.75;;
51995;SDS011;38010;53.264;6.592;2023-04-08T08:26:17;1.95;;;1.67;;
51995;SDS011;38010;53.264;6.592;2023-04-08T08:28:42;2.00;;;1.63;;
51995;SDS011;38010;53.264;6.592;2023-04-08T08:31:08;2.85;;;2.00;;
51995;SDS011;38010;53.264;6.592;2023-04-08T08:33:34;1.52;;;1.40;;
51995;SDS011;38010;53.264;6.592;2023-04-08T08:36:00;2.58;;;1.40;;
51995;SDS011;38010;53.264;6.592;2023-04-08T08:38:26;2.15;;;1.60;;
51995;SDS011;38010;53.264;6.592;2023-04-08T08:40:55;1.83;;;1.63;;
51995;SDS011;38010;53.264;6.592;2023-04-08T08:43:22;2.10;;;1.88;;
51995;SDS011;38010;53.264;6.592;2023-04-08T08:45:48;1.70;;;1.55;;
51995;SDS011;38010;53.264;6.592;2023-04-08T08:48:15;2.45;;;2.10;;
51995;SDS011;38010;53.264;6.592;2023-04-08T08:50:41;2.40;;;1.75;;
51995;SDS011;38010;53.264;6.592;2023-04-08T08:53:07;1.95;;;1.73;;
51995;SDS011;38010;53.264;6.592;2023-04-08T08:55:33;1.60;;;1.50;;
51995;SDS011;38010;53.264;6.592;2023-04-08T08:57:59;1.77;;;1.60;;
51995;SDS011;38010;53.264;6.592;2023-04-08T09:00:39;2.00;;;1.67;;
51995;SDS011;38010;53.264;6.592;2023-04-08T09:03:14;2.33;;;1.35;;
51995;SDS011;38010;53.264;6.592;2023-04-08T09:05:50;1.88;;;1.50;;
51995;SDS011;38010;53.264;6.592;2023-04-08T09:11:14;1.92;;;1.55;;
51995;SDS011;38010;53.264;6.592;2023-04-08T09:13:46;1.60;;;1.30;;
51995;SDS011;38010;53.264;6.592;2023-04-08T09:16:15;1.80;;;1.50;;
51995;SDS011;38010;53.264;6.592;2023-04-08T09:18:43;2.42;;;1.70;;
51995;SDS011;38010;53.264;6.592;2023-04-08T09:21:11;1.88;;;1.60;;
51995;SDS011;38010;53.264;6.592;2023-04-08T09:28:35;1.60;;;1.42;;
51995;SDS011;38010;53.264;6.592;2023-04-08T09:31:08;1.95;;;1.75;;
51995;SDS011;38010;53.264;6.592;2023-04-08T09:33:47;2.50;;;2.30;;
51995;SDS011;38010;53.264;6.592;2023-04-08T09:36:21;2.00;;;1.85;;
51995;SDS011;38010;53.264;6.592;2023-04-08T09:38:46;2.70;;;2.15;;
51995;SDS011;38010;53.264;6.592;2023-04-08T09:41:14;2.50;;;1.75;;
51995;SDS011;38010;53.264;6.592;2023-04-08T09:43:46;1.95;;;1.73;;
51995;SDS011;38010;53.264;6.592;2023-04-08T09:46:16;2.10;;;1.90;;
51995;SDS011;38010;53.264;6.592;2023-04-08T09:48:54;2.35;;;2.03;;
51995;SDS011;38010;53.264;6.592;2023-04-08T09:51:32;2.78;;;1.55;;
51995;SDS011;38010;53.264;6.592;2023-04-08T09:54:08;2.85;;;1.80;;
51995;SDS011;38010;53.264;6.592;2023-04-08T09:56:46;2.15;;;1.73;;
51995;SDS011;38010;53.264;6.592;2023-04-08T09:59:16;2.50;;;2.08;;
51995;SDS011;38010;53.264;6.592;2023-04-08T10:01:49;3.00;;;1.98;;
51995;SDS011;38010;53.264;6.592;2023-04-08T10:04:19;3.00;;;2.17;;
51995;SDS011;38010;53.264;6.592;2023-04-08T10:06:53;3.33;;;2.30;;
51995;SDS011;38010;53.264;6.592;2023-04-08T10:09:21;2.42;;;1.88;;
51995;SDS011;38010;53.264;6.592;2023-04-08T10:11:48;2.83;;;2.40;;
51995;SDS011;38010;53.264;6.592;2023-04-08T10:14:14;3.00;;;2.40;;
51995;SDS011;38010;53.264;6.592;2023-04-08T10:16:40;2.28;;;2.08;;
51995;SDS011;38010;53.264;6.592;2023-04-08T10:27:42;3.33;;;2.75;;
51995;SDS011;38010;53.264;6.592;2023-04-08T10:35:30;3.67;;;1.98;;
51995;SDS011;38010;53.264;6.592;2023-04-08T10:37:57;3.33;;;2.10;;
51995;SDS011;38010;53.264;6.592;2023-04-08T10:40:23;3.22;;;2.70;;
51995;SDS011;38010;53.264;6.592;2023-04-08T10:42:59;3.13;;;2.22;;
51995;SDS011;38010;53.264;6.592;2023-04-08T10:45:24;3.13;;;2.30;;
51995;SDS011;38010;53.264;6.592;2023-04-08T10:47:50;3.55;;;2.63;;
51995;SDS011;38010;53.264;6.592;2023-04-08T10:50:17;2.05;;;1.85;;
51995;SDS011;38010;53.264;6.592;2023-04-08T10:55:21;3.17;;;2.77;;
51995;SDS011;38010;53.264;6.592;2023-04-08T10:57:51;2.75;;;2.03;;
51995;SDS011;38010;53.264;6.592;2023-04-08T11:00:18;3.20;;;2.70;;
51995;SDS011;38010;53.264;6.592;2023-04-08T11:03:04;3.97;;;2.85;;
51995;SDS011;38010;53.264;6.592;2023-04-08T11:05:32;5.10;;;3.33;;
51995;SDS011;38010;53.264;6.592;2023-04-08T11:07:58;4.25;;;2.90;;
51995;SDS011;38010;53.264;6.592;2023-04-08T11:10:25;4.30;;;3.33;;
51995;SDS011;38010;53.264;6.592;2023-04-08T11:12:54;6.72;;;3.80;;
51995;SDS011;38010;53.264;6.592;2023-04-08T11:15:21;5.30;;;3.35;;
51995;SDS011;38010;53.264;6.592;2023-04-08T11:17:48;3.30;;;2.92;;
51995;SDS011;38010;53.264;6.592;2023-04-08T11:20:14;4.10;;;3.70;;
51995;SDS011;38010;53.264;6.592;2023-04-08T11:22:41;5.05;;;3.50;;
51995;SDS011;38010;53.264;6.592;2023-04-08T11:25:08;5.25;;;3.58;;
51995;SDS011;38010;53.264;6.592;2023-04-08T11:27:34;3.63;;;2.65;;
51995;SDS011;38010;53.264;6.592;2023-04-08T11:30:01;4.35;;;3.17;;
51995;SDS011;38010;53.264;6.592;2023-04-08T11:32:27;3.53;;;2.90;;
51995;SDS011;38010;53.264;6.592;2023-04-08T11:34:54;3.25;;;2.88;;
51995;SDS011;38010;53.264;6.592;2023-04-08T11:37:20;3.72;;;3.25;;
51995;SDS011;38010;53.264;6.592;2023-04-08T11:39:46;5.00;;;3.15;;
51995;SDS011;38010;53.264;6.592;2023-04-08T11:42:27;4.47;;;3.17;;
51995;SDS011;38010;53.264;6.592;2023-04-08T11:44:54;5.57;;;3.67;;
51995;SDS011;38010;53.264;6.592;2023-04-08T11:47:20;3.65;;;3.03;;
51995;SDS011;38010;53.264;6.592;2023-04-08T11:49:47;4.32;;;3.13;;
51995;SDS011;38010;53.264;6.592;2023-04-08T11:52:12;4.07;;;2.97;;
51995;SDS011;38010;53.264;6.592;2023-04-08T11:54:42;3.30;;;3.00;;
51995;SDS011;38010;53.264;6.592;2023-04-08T11:57:08;4.30;;;3.38;;
51995;SDS011;38010;53.264;6.592;2023-04-08T11:59:34;4.53;;;3.47;;
51995;SDS011;38010;53.264;6.592;2023-04-08T12:02:01;3.90;;;3.15;;
51995;SDS011;38010;53.264;6.592;2023-04-08T12:04:27;3.60;;;2.83;;
51995;SDS011;38010;53.264;6.592;2023-04-08T12:06:54;4.70;;;3.60;;
51995;SDS011;38010;53.264;6.592;2023-04-08T12:09:20;4.50;;;3.33;;
51995;SDS011;38010;53.264;6.592;2023-04-08T12:11:46;4.93;;;3.38;;
51995;SDS011;38010;53.264;6.592;2023-04-08T12:14:12;3.67;;;3.08;;
51995;SDS011;38010;53.264;6.592;2023-04-08T12:16:37;4.55;;;3.35;;
51995;SDS011;38010;53.264;6.592;2023-04-08T12:19:03;3.60;;;3.00;;
51995;SDS011;38010;53.264;6.592;2023-04-08T12:21:29;3.75;;;3.00;;
51995;SDS011;38010;53.264;6.592;2023-04-08T12:23:56;4.10;;;3.65;;
51995;SDS011;38010;53.264;6.592;2023-04-08T12:26:22;5.68;;;3.70;;
51995;SDS011;38010;53.264;6.592;2023-04-08T12:28:48;3.95;;;3.30;;
51995;SDS011;38010;53.264;6.592;2023-04-08T12:31:14;3.92;;;3.55;;
51995;SDS011;38010;53.264;6.592;2023-04-08T12:33:39;4.38;;;2.92;;
51995;SDS011;38010;53.264;6.592;2023-04-08T12:36:05;4.50;;;3.13;;
51995;SDS011;38010;53.264;6.592;2023-04-08T12:38:31;4.72;;;3.17;;
51995;SDS011;38010;53.264;6.592;2023-04-08T12:40:57;3.85;;;2.90;;
51995;SDS011;38010;53.264;6.592;2023-04-08T12:43:23;3.47;;;2.92;;
51995;SDS011;38010;53.264;6.592;2023-04-08T12:45:49;3.92;;;3.28;;
51995;SDS011;38010;53.264;6.592;2023-04-08T12:48:15;3.78;;;2.80;;
51995;SDS011;38010;53.264;6.592;2023-04-08T12:50:41;3.80;;;3.08;;
51995;SDS011;38010;53.264;6.592;2023-04-08T12:53:07;4.00;;;3.20;;
51995;SDS011;38010;53.264;6.592;2023-04-08T12:55:33;3.08;;;2.58;;
51995;SDS011;38010;53.264;6.592;2023-04-08T12:57:58;3.35;;;3.03;;
51995;SDS011;38010;53.264;6.592;2023-04-08T13:00:25;3.35;;;3.03;;
51995;SDS011;38010;53.264;6.592;2023-04-08T13:02:50;4.05;;;2.58;;
51995;SDS011;38010;53.264;6.592;2023-04-08T13:05:16;3.30;;;2.45;;
51995;SDS011;38010;53.264;6.592;2023-04-08T13:07:42;3.97;;;2.83;;
51995;SDS011;38010;53.264;6.592;2023-04-08T13:10:08;2.70;;;2.22;;
51995;SDS011;38010;53.264;6.592;2023-04-08T13:12:34;2.75;;;2.33;;
51995;SDS011;38010;53.264;6.592;2023-04-08T13:15:00;3.05;;;2.65;;
51995;SDS011;38010;53.264;6.592;2023-04-08T13:17:26;4.03;;;2.47;;
51995;SDS011;38010;53.264;6.592;2023-04-08T13:19:52;3.22;;;2.92;;
51995;SDS011;38010;53.264;6.592;2023-04-08T13:22:17;3.28;;;2.60;;
51995;SDS011;38010;53.264;6.592;2023-04-08T13:24:43;2.65;;;2.45;;
51995;SDS011;38010;53.264;6.592;2023-04-08T13:27:09;3.47;;;2.70;;
51995;SDS011;38010;53.264;6.592;2023-04-08T13:29:35;3.30;;;2.15;;
51995;SDS011;38010;53.264;6.592;2023-04-08T13:32:00;3.40;;;2.65;;
51995;SDS011;38010;53.264;6.592;2023-04-08T13:34:26;4.20;;;2.60;;
51995;SDS011;38010;53.264;6.592;2023-04-08T13:36:52;2.90;;;2.28;;
51995;SDS011;38010;53.264;6.592;2023-04-08T13:39:17;3.08;;;2.42;;
51995;SDS011;38010;53.264;6.592;2023-04-08T13:41:43;3.22;;;2.35;;
51995;SDS011;38010;53.264;6.592;2023-04-08T13:44:09;3.15;;;2.40;;
51995;SDS011;38010;53.264;6.592;2023-04-08T13:46:35;2.83;;;2.50;;
51995;SDS011;38010;53.264;6.592;2023-04-08T13:49:01;3.28;;;2.65;;
51995;SDS011;38010;53.264;6.592;2023-04-08T13:51:27;2.67;;;2.38;;
51995;SDS011;38010;53.264;6.592;2023-04-08T13:53:53;3.38;;;2.67;;
51995;SDS011;38010;53.264;6.592;2023-04-08T13:56:19;3.17;;;2.35;;
51995;SDS011;38010;53.264;6.592;2023-04-08T13:58:45;3.00;;;2.63;;
51995;SDS011;38010;53.264;6.592;2023-04-08T14:01:11;3.10;;;2.17;;
51995;SDS011;38010;53.264;6.592;2023-04-08T14:03:37;2.92;;;2.30;;
51995;SDS011;38010;53.264;6.592;2023-04-08T14:06:03;2.72;;;2.38;;
51995;SDS011;38010;53.264;6.592;2023-04-08T14:08:29;3.38;;;2.38;;
51995;SDS011;38010;53.264;6.592;2023-04-08T14:10:55;2.72;;;2.38;;
51995;SDS011;38010;53.264;6.592;2023-04-08T14:13:22;2.70;;;1.70;;
51995;SDS011;38010;53.264;6.592;2023-04-08T14:15:47;2.65;;;2.30;;
51995;SDS011;38010;53.264;6.592;2023-04-08T14:18:14;2.35;;;2.15;;
51995;SDS011;38010;53.264;6.592;2023-04-08T14:20:42;2.60;;;1.90;;
51995;SDS011;38010;53.264;6.592;2023-04-08T14:23:07;2.45;;;2.25;;
51995;SDS011;38010;53.264;6.592;2023-04-08T14:25:33;2.45;;;2.13;;
51995;SDS011;38010;53.264;6.592;2023-04-08T14:27:59;4.32;;;2.70;;
51995;SDS011;38010;53.264;6.592;2023-04-08T14:30:25;3.15;;;2.35;;
51995;SDS011;38010;53.264;6.592;2023-04-08T14:32:51;3.53;;;2.20;;
51995;SDS011;38010;53.264;6.592;2023-04-08T14:35:17;3.28;;;2.25;;
51995;SDS011;38010;53.264;6.592;2023-04-08T14:37:43;2.38;;;2.17;;
51995;SDS011;38010;53.264;6.592;2023-04-08T14:40:08;2.13;;;1.92;;
51995;SDS011;38010;53.264;6.592;2023-04-08T14:42:35;2.97;;;2.08;;
51995;SDS011;38010;53.264;6.592;2023-04-08T14:45:01;2.85;;;2.35;;
51995;SDS011;38010;53.264;6.592;2023-04-08T14:47:28;4.13;;;2.47;;
51995;SDS011;38010;53.264;6.592;2023-04-08T14:49:53;2.70;;;2.25;;
51995;SDS011;38010;53.264;6.592;2023-04-08T14:52:19;2.45;;;2.25;;
51995;SDS011;38010;53.264;6.592;2023-04-08T14:54:45;2.40;;;2.10;;
51995;SDS011;38010;53.264;6.592;2023-04-08T14:57:12;2.97;;;2.20;;
51995;SDS011;38010;53.264;6.592;2023-04-08T14:59:37;2.75;;;2.33;;
51995;SDS011;38010;53.264;6.592;2023-04-08T15:02:03;2.28;;;1.95;;
51995;SDS011;38010;53.264;6.592;2023-04-08T15:04:29;2.92;;;2.10;;
51995;SDS011;38010;53.264;6.592;2023-04-08T15:06:55;2.40;;;2.05;;
51995;SDS011;38010;53.264;6.592;2023-04-08T15:09:21;2.67;;;2.40;;
51995;SDS011;38010;53.264;6.592;2023-04-08T15:11:48;2.30;;;2.10;;
51995;SDS011;38010;53.264;6.592;2023-04-08T15:14:13;3.28;;;2.13;;
51995;SDS011;38010;53.264;6.592;2023-04-08T15:16:39;3.08;;;2.30;;
51995;SDS011;38010;53.264;6.592;2023-04-08T15:19:05;2.58;;;2.38;;